createdAt,value
2022-08-05T00:02:21.767Z,95114.13
2022-08-05T00:04:52.871Z,95113.16
2022-08-05T00:07:59.180Z,95112.47
2022-08-05T00:10:10.023Z,95099.94
2022-08-05T00:12:48.483Z,95097.47
2022-08-05T00:15:55.250Z,95104.75
2022-08-05T00:18:10.573Z,95106.28
2022-08-05T00:20:48.874Z,95105.84
2022-08-05T00:23:15.623Z,95094.34
2022-08-05T00:25:45.923Z,95095.19
2022-08-05T00:28:13.209Z,95100.97
2022-08-05T00:30:39.810Z,95084.94
2022-08-05T00:34:42.258Z,95098.72
2022-08-05T00:36:16.455Z,95097.94
2022-08-05T00:38:41.708Z,95088.91
2022-08-05T00:41:11.801Z,95092.16
2022-08-05T00:43:47.012Z,95091.88
2022-08-05T00:46:16.228Z,95080.41
2022-08-05T00:48:50.751Z,95093.22
2022-08-05T00:51:50.888Z,95084.75
2022-08-05T00:54:06.628Z,95080.03
2022-08-05T00:56:33.363Z,95082.06
2022-08-05T00:59:00.240Z,95085.56
2022-08-05T01:01:42.585Z,95086.81
2022-08-05T01:04:15.689Z,95086.03
2022-08-05T01:06:43.840Z,95082.56
2022-08-05T01:09:17.413Z,95092.84
2022-08-05T01:11:51.733Z,95083.34
2022-08-05T01:14:28.090Z,95093.38
2022-08-05T01:17:15.499Z,95083.63
2022-08-05T01:20:03.694Z,95002.81
2022-08-05T01:22:46.920Z,95088.91
2022-08-05T01:25:39.686Z,95091.66
2022-08-05T01:28:20.926Z,95046.09
2022-08-05T01:30:56.479Z,95076.91
2022-08-05T01:33:35.483Z,95082.91
2022-08-05T01:36:13.080Z,95064.63
2022-08-05T01:38:48.468Z,95097.16
2022-08-05T01:41:21.907Z,95021.25
2022-08-05T01:43:51.227Z,95095.69
2022-08-05T01:46:43.031Z,95080.38
2022-08-05T01:49:23.406Z,95059.09
2022-08-05T01:51:58.815Z,95059.81
2022-08-05T01:54:46.327Z,95078.59
2022-08-05T01:58:09.487Z,95018.75
2022-08-05T02:00:12.062Z,95032.00
2022-08-05T02:02:53.585Z,95012.22
2022-08-05T02:05:25.293Z,95059.78
2022-08-05T02:08:01.152Z,95066.78
2022-08-05T02:10:35.460Z,95113.66
2022-08-05T02:13:16.317Z,95116.66
2022-08-05T02:15:54.291Z,95095.88
2022-08-05T02:18:34.489Z,95105.38
2022-08-05T02:21:18.735Z,95101.13
2022-08-05T02:23:50.614Z,95093.34
2022-08-05T02:26:20.987Z,95103.88
2022-08-05T02:28:50.121Z,95096.38
2022-08-05T02:31:26.781Z,95075.06
2022-08-05T02:34:01.267Z,95098.63
2022-08-05T02:36:31.467Z,95091.09
2022-08-05T02:39:00.393Z,95105.44
2022-08-05T02:41:43.430Z,95099.16
2022-08-05T02:44:18.121Z,95039.28
2022-08-05T02:46:59.928Z,95099.69
2022-08-05T02:49:36.658Z,95080.84
2022-08-05T02:52:08.731Z,95087.59
2022-08-05T02:54:41.137Z,95067.31
2022-08-05T02:58:19.726Z,95058.78
2022-08-05T03:00:01.322Z,95097.84
2022-08-05T03:02:39.867Z,95102.88
2022-08-05T03:05:10.319Z,95093.06
2022-08-05T03:08:01.213Z,95051.94
2022-08-05T03:10:27.113Z,95088.50
2022-08-05T03:12:54.513Z,95101.75
2022-08-05T03:15:25.518Z,95108.50
2022-08-05T03:17:55.796Z,95030.84
2022-08-05T03:20:24.388Z,95108.03
2022-08-05T03:22:52.836Z,95102.25
2022-08-05T03:25:32.612Z,95099.03
2022-08-05T03:28:09.648Z,95105.53
2022-08-05T03:30:38.331Z,95107.53
2022-08-05T03:33:08.351Z,95103.75
2022-08-05T03:35:40.429Z,95094.75
2022-08-05T03:38:11.571Z,95114.78
2022-08-05T03:40:45.295Z,95087.97
2022-08-05T03:43:58.554Z,95105.00
2022-08-05T03:46:02.845Z,95108.00
2022-08-05T03:48:35.543Z,95108.28
2022-08-05T03:52:37.822Z,95100.53
2022-08-05T03:55:53.008Z,95060.72
2022-08-05T03:57:41.906Z,95111.38
2022-08-05T04:00:16.010Z,95096.38
2022-08-05T04:02:57.750Z,95101.63
2022-08-05T04:05:33.914Z,95089.59
2022-08-05T04:08:29.550Z,95109.19
2022-08-05T04:10:55.358Z,95105.94
2022-08-05T04:13:22.884Z,95092.41
2022-08-05T04:16:04.446Z,95099.44
2022-08-05T04:18:34.381Z,95067.38
2022-08-05T04:21:04.655Z,95073.38
2022-08-05T04:24:05.659Z,95047.06
2022-08-05T04:26:19.950Z,95092.38
2022-08-05T04:28:50.876Z,95101.31
2022-08-05T04:31:20.450Z,95075.22
2022-08-05T04:34:18.029Z,95046.44
2022-08-05T04:36:45.634Z,95065.44
2022-08-05T04:39:13.305Z,95090.88
2022-08-05T04:41:40.371Z,95089.88
2022-08-05T04:44:09.599Z,95106.75
2022-08-05T04:46:37.612Z,95107.34
2022-08-05T04:49:05.971Z,95095.00
2022-08-05T04:51:39.401Z,95096.81
2022-08-05T04:54:06.138Z,95099.06
2022-08-05T04:56:37.196Z,95104.53
2022-08-05T04:59:21.607Z,95077.47
2022-08-05T05:02:35.473Z,95071.78
2022-08-05T05:04:38.191Z,95080.97
2022-08-05T05:07:09.419Z,95097.91
2022-08-05T05:09:37.223Z,95084.31
2022-08-05T05:12:04.884Z,95099.94
2022-08-05T05:14:33.322Z,95052.22
2022-08-05T05:17:03.721Z,95108.44
2022-08-05T05:19:37.289Z,95105.22
2022-08-05T05:22:23.117Z,95070.97
2022-08-05T05:24:59.803Z,95093.59
2022-08-05T05:27:44.636Z,95078.94
2022-08-05T05:30:29.077Z,95099.03
2022-08-05T05:33:00.631Z,95096.81
2022-08-05T05:35:34.251Z,95098.28
2022-08-05T05:38:05.584Z,95080.25
2022-08-05T05:40:35.709Z,95080.81
2022-08-05T05:43:03.606Z,95077.25
2022-08-05T05:45:30.868Z,95091.97
2022-08-05T05:48:06.333Z,95100.53
2022-08-05T05:50:43.940Z,95085.56
2022-08-05T05:53:21.117Z,95099.94
2022-08-05T05:55:51.941Z,95088.22
2022-08-05T05:58:30.177Z,95060.66
2022-08-05T06:01:12.078Z,95105.19
2022-08-05T06:04:00.872Z,95102.88
2022-08-05T06:06:33.238Z,95092.63
2022-08-05T06:09:05.607Z,95092.50
2022-08-05T06:11:35.104Z,95068.69
2022-08-05T06:14:06.358Z,95105.03
2022-08-05T06:16:36.766Z,95094.56
2022-08-05T06:19:05.476Z,95084.72
2022-08-05T06:21:36.065Z,95083.75
2022-08-05T06:24:07.753Z,95078.66
2022-08-05T06:26:52.391Z,95095.84
2022-08-05T06:29:42.948Z,95088.78
2022-08-05T06:32:25.644Z,95077.81
2022-08-05T06:34:57.212Z,95094.00
2022-08-05T06:37:56.014Z,95102.97
2022-08-05T06:40:13.661Z,95111.50
2022-08-05T06:42:40.994Z,95094.41
2022-08-05T06:45:09.425Z,95099.41
2022-08-05T06:48:36.742Z,95098.13
2022-08-05T06:50:25.039Z,95088.44
2022-08-05T06:52:58.554Z,95100.94
2022-08-05T06:55:27.271Z,95095.91
2022-08-05T06:58:03.890Z,95094.59
2022-08-05T07:00:41.724Z,95098.50
2022-08-05T07:03:09.670Z,95091.03
2022-08-05T07:05:37.727Z,95075.41
2022-08-05T07:08:10.721Z,95076.16
2022-08-05T07:10:38.109Z,95099.59
2022-08-05T07:13:57.114Z,95091.41
2022-08-05T07:18:00.995Z,95094.59
2022-08-05T07:19:38.923Z,95097.47
2022-08-05T07:22:06.851Z,95084.22
2022-08-05T07:24:35.184Z,95103.00
2022-08-05T07:27:10.898Z,95088.59
2022-08-05T07:30:25.408Z,95062.28
2022-08-05T07:32:26.175Z,95098.19
2022-08-05T07:34:57.738Z,95082.13
2022-08-05T07:37:25.111Z,95079.88
2022-08-05T07:40:26.818Z,95085.44
2022-08-05T07:42:51.730Z,95094.75
2022-08-05T07:45:19.253Z,95074.94
2022-08-05T07:48:06.210Z,95098.94
2022-08-05T07:50:35.450Z,95088.88
2022-08-05T07:53:03.582Z,95092.03
2022-08-05T07:55:44.396Z,95070.81
2022-08-05T07:58:58.593Z,95061.69
2022-08-05T08:01:06.184Z,95078.50
2022-08-05T08:03:44.852Z,95075.09
2022-08-05T08:06:11.929Z,95050.97
2022-08-05T08:08:38.559Z,95049.53
2022-08-05T08:11:08.925Z,95085.72
2022-08-05T08:13:42.960Z,95075.94
2022-08-05T08:16:34.354Z,95081.16
2022-08-05T08:19:03.791Z,95079.28
2022-08-05T08:21:33.391Z,95050.97
2022-08-05T08:24:04.972Z,95087.53
2022-08-05T08:26:33.093Z,95048.28
2022-08-05T08:29:21.837Z,95077.28
2022-08-05T08:31:49.703Z,95069.47
2022-08-05T08:34:30.867Z,95070.97
2022-08-05T08:37:05.326Z,95074.44
2022-08-05T08:39:32.703Z,95067.59
2022-08-05T08:42:10.816Z,95060.97
2022-08-05T08:45:23.840Z,95059.69
2022-08-05T08:48:07.050Z,95057.41
2022-08-05T08:51:03.833Z,95041.06
2022-08-05T08:53:28.894Z,95064.97
2022-08-05T08:56:05.252Z,95063.22
2022-08-05T08:58:43.098Z,95043.56
2022-08-05T09:01:15.805Z,95049.03
2022-08-05T09:03:47.565Z,95048.47
2022-08-05T09:06:18.667Z,95058.63
2022-08-05T09:08:48.609Z,95043.25
2022-08-05T09:11:16.142Z,95060.56
2022-08-05T09:14:09.517Z,95033.50
2022-08-05T09:16:31.039Z,95050.41
2022-08-05T09:18:59.411Z,95043.25
2022-08-05T09:22:23.426Z,95034.16
2022-08-05T09:24:15.941Z,95026.59
2022-08-05T09:26:47.616Z,95028.84
2022-08-05T09:29:19.272Z,95021.28
2022-08-05T09:32:40.284Z,95017.88
2022-08-05T09:34:55.206Z,95033.44
2022-08-05T09:38:13.054Z,95022.19
2022-08-05T09:40:39.673Z,94959.72
2022-08-05T09:43:40.560Z,95023.84
2022-08-05T09:46:30.501Z,95004.88
2022-08-05T09:49:08.433Z,95010.44
2022-08-05T09:51:48.815Z,95016.94
2022-08-05T09:54:21.364Z,95022.78
2022-08-05T09:56:56.214Z,94976.75
2022-08-05T09:59:27.690Z,95012.66
2022-08-05T10:01:58.397Z,95004.44
2022-08-05T10:04:35.897Z,94991.50
2022-08-05T10:07:14.246Z,94970.97
2022-08-05T10:10:14.379Z,94988.69
2022-08-05T10:12:49.699Z,94980.91
2022-08-05T10:15:39.226Z,94988.03
2022-08-05T10:18:19.832Z,94984.53
2022-08-05T10:21:08.467Z,94981.84
2022-08-05T10:23:58.974Z,94973.91
2022-08-05T10:26:32.352Z,94973.97
2022-08-05T10:28:59.950Z,94970.75
2022-08-05T10:32:53.354Z,94979.56
2022-08-05T10:34:17.161Z,94986.00
2022-08-05T10:36:44.326Z,94960.38
2022-08-05T10:40:04.305Z,94977.56
2022-08-05T10:42:33.592Z,94967.75
2022-08-05T10:45:02.346Z,94967.81
2022-08-05T10:48:29.994Z,94961.94
2022-08-05T10:51:06.181Z,94969.34
2022-08-05T10:53:51.820Z,94963.75
2022-08-05T10:56:26.041Z,94960.09
2022-08-05T10:58:55.934Z,94957.53
2022-08-05T11:01:55.082Z,94957.94
2022-08-05T11:04:22.604Z,94954.38
2022-08-05T11:07:04.555Z,94951.16
2022-08-05T11:10:04.006Z,94942.56
2022-08-05T11:12:45.361Z,94952.97
2022-08-05T11:15:21.296Z,94949.81
2022-08-05T11:18:00.087Z,94941.09
2022-08-05T11:20:47.608Z,94949.97
2022-08-05T11:24:03.846Z,94940.38
2022-08-05T11:26:32.341Z,94933.91
2022-08-05T11:29:12.146Z,94938.69
2022-08-05T11:31:57.406Z,94938.50
2022-08-05T11:34:50.882Z,94937.03
2022-08-05T11:38:29.525Z,94928.91
2022-08-05T11:41:35.698Z,94926.88
2022-08-05T11:44:40.139Z,94928.00
2022-08-05T11:47:11.763Z,94934.88
2022-08-05T11:49:43.351Z,94924.47
2022-08-05T11:52:29.198Z,94914.75
2022-08-05T11:54:58.511Z,94918.22
2022-08-05T11:58:08.624Z,94920.63
2022-08-05T12:00:31.765Z,94919.34
2022-08-05T12:03:15.848Z,94906.56
2022-08-05T12:05:51.072Z,94922.06
2022-08-05T12:08:18.633Z,94920.91
2022-08-05T12:10:48.725Z,94909.88
2022-08-05T12:13:27.839Z,94915.94
2022-08-05T12:16:14.129Z,94912.63
2022-08-05T12:18:42.710Z,94893.66
2022-08-05T12:21:30.279Z,94909.88
2022-08-05T12:24:05.248Z,94913.81
2022-08-05T12:26:44.023Z,94907.84
2022-08-05T12:29:16.388Z,94908.22
2022-08-05T12:31:55.275Z,94903.91
2022-08-05T12:34:26.857Z,94906.56
2022-08-05T12:36:54.720Z,94907.22
2022-08-05T12:39:23.715Z,94905.69
2022-08-05T12:42:00.218Z,94909.56
2022-08-05T12:44:33.229Z,94876.69
2022-08-05T12:47:01.771Z,94884.03
2022-08-05T12:50:03.253Z,94884.50
2022-08-05T12:52:32.367Z,94882.69
2022-08-05T12:55:22.127Z,94883.06
2022-08-05T12:58:38.235Z,94887.91
2022-08-05T13:02:02.521Z,94875.28
2022-08-05T13:03:35.206Z,94862.53
2022-08-05T13:06:11.606Z,94864.72
2022-08-05T13:08:38.918Z,94868.38
2022-08-05T13:11:07.978Z,94870.88
2022-08-05T13:14:04.569Z,94858.66
2022-08-05T13:16:28.005Z,94841.44
2022-08-05T13:18:58.738Z,94860.84
2022-08-05T13:21:28.520Z,94847.44
2022-08-05T13:24:08.796Z,94853.34
2022-08-05T13:26:36.365Z,94859.22
2022-08-05T13:29:05.194Z,94853.47
2022-08-05T13:31:34.063Z,94823.81
2022-08-05T13:34:24.492Z,94853.63
2022-08-05T13:36:53.838Z,94850.16
2022-08-05T13:40:13.176Z,94830.94
2022-08-05T13:42:14.680Z,94851.94
2022-08-05T13:44:46.169Z,94849.50
2022-08-05T13:47:28.175Z,94844.09
2022-08-05T13:50:06.863Z,94838.00
2022-08-05T13:52:38.292Z,94833.53
2022-08-05T13:55:07.302Z,94841.56
2022-08-05T13:57:51.050Z,94834.16
2022-08-05T14:00:26.882Z,94834.06
2022-08-05T14:02:55.855Z,94842.28
2022-08-05T14:05:48.269Z,94831.97
2022-08-05T14:08:20.255Z,94837.28
2022-08-05T14:10:49.047Z,94832.50
2022-08-05T14:13:16.378Z,94829.34
2022-08-05T14:16:05.294Z,94825.91
2022-08-05T14:18:29.821Z,94826.91
2022-08-05T14:20:56.475Z,94823.81
2022-08-05T14:23:25.762Z,94796.94
2022-08-05T14:25:58.490Z,94811.94
2022-08-05T14:28:27.860Z,94793.25
2022-08-05T14:30:56.650Z,94810.69
2022-08-05T14:33:23.693Z,94789.31
2022-08-05T14:35:53.956Z,94809.91
2022-08-05T14:38:33.299Z,94804.38
2022-08-05T14:41:06.945Z,94815.69
2022-08-05T14:44:02.318Z,94803.56
2022-08-05T14:46:29.162Z,94787.50
2022-08-05T14:48:59.595Z,94797.09
2022-08-05T14:51:34.006Z,94804.09
2022-08-05T14:54:26.435Z,94788.59
2022-08-05T14:56:48.294Z,94778.25
2022-08-05T14:59:15.934Z,94790.50
2022-08-05T15:01:49.008Z,94780.22
2022-08-05T15:04:16.940Z,94776.06
2022-08-05T15:06:48.978Z,94767.63
2022-08-05T15:09:19.443Z,94796.09
2022-08-05T15:12:04.794Z,94791.84
2022-08-05T15:14:34.963Z,94784.47
2022-08-05T15:17:10.014Z,94779.84
2022-08-05T15:19:56.299Z,94780.81
2022-08-05T15:22:27.032Z,94782.94
2022-08-05T15:24:55.077Z,94780.44
2022-08-05T15:27:21.700Z,94788.75
2022-08-05T15:29:53.160Z,94771.13
2022-08-05T15:32:27.138Z,94765.16
2022-08-05T15:34:56.712Z,94777.34
2022-08-05T15:38:32.842Z,94776.78
2022-08-05T15:41:04.794Z,94763.53
2022-08-05T15:43:10.948Z,94766.47
2022-08-05T15:45:46.104Z,94764.66
2022-08-05T15:48:15.181Z,94763.41
2022-08-05T15:50:43.909Z,94767.81
2022-08-05T15:53:12.641Z,94761.34
2022-08-05T15:56:04.323Z,94755.03
2022-08-05T15:58:30.042Z,94762.88
2022-08-05T16:01:16.682Z,94760.47
2022-08-05T16:03:50.257Z,94770.97
2022-08-05T16:06:22.747Z,94769.94
2022-08-05T16:08:53.664Z,94772.34
2022-08-05T16:11:42.952Z,94760.28
2022-08-05T16:14:09.517Z,94765.41
2022-08-05T16:16:36.820Z,94776.59
2022-08-05T16:19:03.932Z,94771.25
2022-08-05T16:22:00.619Z,94763.09
2022-08-05T16:24:41.453Z,94766.38
2022-08-05T16:27:04.969Z,94757.97
2022-08-05T16:29:37.412Z,94766.88
2022-08-05T16:32:09.525Z,94753.72
2022-08-05T16:34:36.481Z,94772.06
2022-08-05T16:37:06.063Z,94761.19
2022-08-05T16:40:04.665Z,94768.06
2022-08-05T16:42:32.874Z,94757.59
2022-08-05T16:45:00.457Z,94765.44
2022-08-05T16:47:36.313Z,94762.50
2022-08-05T16:50:14.756Z,94769.47
2022-08-05T16:52:46.171Z,94771.25
2022-08-05T16:55:12.983Z,94738.94
2022-08-05T16:57:52.555Z,94769.66
2022-08-05T17:00:34.983Z,94788.16
2022-08-05T17:03:15.286Z,94777.53
2022-08-05T17:05:53.584Z,94787.00
2022-08-05T17:08:33.591Z,94769.38
2022-08-05T17:11:12.787Z,94780.34
2022-08-05T17:13:44.532Z,94770.88
2022-08-05T17:16:29.825Z,94764.75
2022-08-05T17:19:00.917Z,94785.88
2022-08-05T17:21:35.589Z,94787.91
2022-08-05T17:24:19.569Z,94783.88
2022-08-05T17:26:52.737Z,94792.50
2022-08-05T17:29:22.430Z,94789.22
2022-08-05T17:31:59.738Z,94791.50
2022-08-05T17:34:29.560Z,94803.75
2022-08-05T17:36:57.363Z,94795.59
2022-08-05T17:39:34.089Z,94773.16
2022-08-05T17:42:19.801Z,94781.09
2022-08-05T17:44:51.991Z,94773.03
2022-08-05T17:47:22.238Z,94783.03
2022-08-05T17:49:51.949Z,94790.94
2022-08-05T17:52:30.601Z,94795.03
2022-08-05T17:55:00.178Z,94789.69
2022-08-05T17:57:28.402Z,94787.47
2022-08-05T18:00:05.015Z,94788.56
2022-08-05T18:02:34.123Z,94798.44
2022-08-05T18:05:07.610Z,94810.22
2022-08-05T18:07:41.370Z,94797.97
2022-08-05T18:10:11.254Z,94814.03
2022-08-05T18:12:39.565Z,94813.28
2022-08-05T18:15:08.685Z,94800.47
2022-08-05T18:17:58.927Z,94802.25
2022-08-05T18:20:29.279Z,94816.63
2022-08-05T18:23:00.683Z,94817.06
2022-08-05T18:25:36.929Z,94810.56
2022-08-05T18:28:06.890Z,94825.28
2022-08-05T18:30:34.978Z,94818.59
2022-08-05T18:33:02.344Z,94827.72
2022-08-05T18:36:01.154Z,94831.25
2022-08-05T18:38:19.275Z,94814.34
2022-08-05T18:41:57.092Z,94820.53
2022-08-05T18:43:43.214Z,94818.19
2022-08-05T18:46:20.132Z,94827.56
2022-08-05T18:48:53.531Z,94813.34
2022-08-05T18:52:03.976Z,94827.31
2022-08-05T18:54:31.340Z,94850.44
2022-08-05T18:57:02.398Z,94845.16
2022-08-05T18:59:44.470Z,94833.09
2022-08-05T19:02:26.938Z,94846.00
2022-08-05T19:05:02.114Z,94840.84
2022-08-05T19:07:46.110Z,94837.16
2022-08-05T19:10:14.553Z,94846.66
2022-08-05T19:12:41.580Z,94854.44
2022-08-05T19:15:54.673Z,94850.00
2022-08-05T19:18:08.785Z,94850.00
2022-08-05T19:20:41.288Z,94837.94
2022-08-05T19:24:06.101Z,94840.16
2022-08-05T19:26:01.595Z,94822.50
2022-08-05T19:28:29.300Z,94841.84
2022-08-05T19:30:55.989Z,94842.56
2022-08-05T19:33:35.019Z,94837.69
2022-08-05T19:36:06.377Z,94844.56
2022-08-05T19:38:36.763Z,94790.69
2022-08-05T19:41:08.930Z,94833.81
2022-08-05T19:44:06.759Z,94829.69
2022-08-05T19:46:30.340Z,94833.78
2022-08-05T19:49:03.136Z,94841.03
2022-08-05T19:52:04.551Z,94838.41
2022-08-05T19:54:28.393Z,94819.41
2022-08-05T19:56:59.801Z,94840.56
2022-08-05T19:59:55.177Z,94838.50
2022-08-05T20:02:18.301Z,94832.66
2022-08-05T20:04:48.272Z,94792.00
2022-08-05T20:07:15.470Z,94831.97
2022-08-05T20:09:55.020Z,94840.19
2022-08-05T20:12:25.171Z,94847.88
2022-08-05T20:14:53.387Z,94841.59
2022-08-05T20:17:23.407Z,94828.22
2022-08-05T20:19:56.559Z,94831.00
2022-08-05T20:22:25.010Z,94830.53
2022-08-05T20:24:54.780Z,94828.09
2022-08-05T20:27:26.993Z,94835.72
2022-08-05T20:29:57.849Z,94834.19
2022-08-05T20:32:27.518Z,94832.38
2022-08-05T20:34:54.898Z,94832.19
2022-08-05T20:38:06.705Z,94807.03
2022-08-05T20:40:10.287Z,94835.81
2022-08-05T20:42:37.611Z,94836.19
2022-08-05T20:45:06.982Z,94837.31
2022-08-05T20:47:40.067Z,94834.97
2022-08-05T20:50:08.077Z,94822.91
2022-08-05T20:52:39.237Z,94836.50
2022-08-05T20:55:56.899Z,94808.47
2022-08-05T20:57:56.418Z,94817.00
2022-08-05T21:00:40.743Z,94824.16
2022-08-05T21:03:11.020Z,94817.56
2022-08-05T21:05:54.127Z,94823.47
2022-08-05T21:08:41.405Z,94814.28
2022-08-05T21:11:51.568Z,94832.78
2022-08-05T21:14:01.013Z,94815.25
2022-08-05T21:16:29.702Z,94822.63
2022-08-05T21:18:59.972Z,94812.47
2022-08-05T21:21:39.501Z,94827.50
2022-08-05T21:24:12.879Z,94827.50
2022-08-05T21:26:41.492Z,94832.22
2022-08-05T21:29:12.616Z,94827.75
2022-08-05T21:31:43.695Z,94832.06
2022-08-05T21:34:11.545Z,94805.81
2022-08-05T21:36:42.439Z,94825.78
2022-08-05T21:39:14.349Z,94830.50
2022-08-05T21:41:52.426Z,94824.22
2022-08-05T21:44:27.025Z,94841.84
2022-08-05T21:46:55.643Z,94843.34
2022-08-05T21:50:00.199Z,94837.16
2022-08-05T21:52:22.826Z,94834.28
2022-08-05T21:54:56.367Z,94831.63
2022-08-05T21:57:32.433Z,94822.97
2022-08-05T22:00:05.773Z,94826.16
2022-08-05T22:02:34.777Z,94840.44
2022-08-05T22:05:02.026Z,94818.91
2022-08-05T22:07:39.334Z,94837.13
2022-08-05T22:10:25.488Z,94817.88
2022-08-05T22:12:53.905Z,94836.84
2022-08-05T22:16:01.498Z,94826.50
2022-08-05T22:18:08.706Z,94826.81
2022-08-05T22:20:39.003Z,94825.34
2022-08-05T22:23:24.793Z,94828.31
2022-08-05T22:26:30.303Z,94834.06
2022-08-05T22:28:57.368Z,94830.97
2022-08-05T22:31:29.989Z,94830.53
2022-08-05T22:34:01.010Z,94811.47
2022-08-05T22:36:28.368Z,94828.50
2022-08-05T22:38:56.853Z,94822.44
2022-08-05T22:41:26.307Z,94804.72
2022-08-05T22:44:12.112Z,94819.44
2022-08-05T22:46:40.799Z,94811.13
2022-08-05T22:49:23.110Z,94824.78
2022-08-05T22:52:06.643Z,94819.44
2022-08-05T22:54:36.278Z,94815.81
2022-08-05T22:57:05.073Z,94817.28
2022-08-05T22:59:45.279Z,94797.69
2022-08-05T23:02:17.800Z,94823.38
2022-08-05T23:04:51.604Z,94829.78
2022-08-05T23:07:21.915Z,94821.25
2022-08-05T23:09:56.979Z,94814.44
2022-08-05T23:12:32.851Z,94825.84
2022-08-05T23:15:00.564Z,94819.78
2022-08-05T23:17:34.390Z,94819.97
2022-08-05T23:20:16.990Z,94813.28
2022-08-05T23:22:48.712Z,94808.03
2022-08-05T23:25:51.178Z,94808.69
2022-08-05T23:28:06.861Z,94814.75
2022-08-05T23:30:40.326Z,94808.91
2022-08-05T23:33:21.894Z,94806.19
2022-08-05T23:35:50.413Z,94820.84
2022-08-05T23:38:18.151Z,94826.50
2022-08-05T23:40:49.887Z,94815.09
2022-08-05T23:43:25.335Z,94815.63
2022-08-05T23:46:21.133Z,94818.50
2022-08-05T23:49:00.840Z,94819.56
2022-08-05T23:51:53.612Z,94798.78
2022-08-05T23:54:26.744Z,94815.97
2022-08-05T23:57:03.371Z,94818.50
